Time;durP1;ratioP1;P1;durP2;ratioP2;P2;SDS_P1;SDS_P2;PMS_P1;PMS_P2;Temp;Humidity;BMP_temperature;BMP_pressure;BME280_temperature;BME280_humidity;BME280_pressure;Samples;Min_cycle;Max_cycle;Signal;HPM_P1;HPM_P2
2023/02/10 00:00:15;;;;;;;0.70;0.70;;;;;;;-1.66;73.30;98665.50;29371;202;64014;-63
2023/02/10 00:00:46;;;;;;;0.60;0.60;;;;;;;-1.66;73.10;98670.81;29373;222;63005;-63
2023/02/10 00:01:24;;;;;;;0.70;0.70;;;;;;;-1.68;72.74;98662.19;29373;235;63009;-63
2023/02/10 00:01:55;;;;;;;0.60;0.60;;;;;;;-1.67;72.95;98663.00;29371;208;64009;-63
2023/02/10 00:02:28;;;;;;;0.60;0.60;;;;;;;-1.67;72.90;98669.16;29373;252;63009;-63
2023/02/10 00:02:59;;;;;;;0.65;0.65;;;;;;;-1.67;73.21;98663.00;29373;257;63018;-62
2023/02/10 00:03:31;;;;;;;0.60;0.60;;;;;;;-1.67;73.03;98657.69;29373;237;63009;-63
2023/02/10 00:04:04;;;;;;;0.60;0.60;;;;;;;-1.67;73.01;98657.69;29373;215;63005;-63
2023/02/10 00:04:35;;;;;;;0.60;0.60;;;;;;;-1.68;73.05;98659.53;29373;199;63009;-62
2023/02/10 00:05:07;;;;;;;0.60;0.60;;;;;;;-1.69;72.93;98655.19;29373;205;63004;-61
2023/02/10 00:05:39;;;;;;;0.70;0.70;;;;;;;-1.68;73.13;98662.19;29373;215;63009;-62
2023/02/10 00:06:12;;;;;;;0.70;0.70;;;;;;;-1.69;73.20;98656.03;29373;223;63004;-62
2023/02/10 00:06:46;;;;;;;0.60;0.60;;;;;;;-1.69;73.14;98660.53;29373;220;63004;-61
2023/02/10 00:07:19;;;;;;;0.70;0.70;;;;;;;-1.70;73.39;98665.00;29371;278;64008;-62
2023/02/10 00:07:51;;;;;;;0.60;0.60;;;;;;;-1.70;73.21;98659.69;29373;205;63009;-63
2023/02/10 00:08:22;;;;;;;0.70;0.70;;;;;;;-1.70;73.14;98659.69;29373;243;63005;-62
2023/02/10 00:08:59;;;;;;;0.70;0.70;;;;;;;-1.71;73.05;98657.19;29373;197;63009;-61
2023/02/10 00:09:31;;;;;;;0.70;0.70;;;;;;;-1.71;73.14;98663.34;29373;199;63013;-62
2023/02/10 00:10:04;;;;;;;0.70;0.70;;;;;;;-1.70;73.05;98659.69;29373;250;63009;-63
2023/02/10 00:10:35;;;;;;;0.60;0.60;;;;;;;-1.70;73.43;98669.50;29373;218;63005;-62
2023/02/10 00:11:10;;;;;;;0.60;0.60;;;;;;;-1.69;73.17;98671.16;29373;203;63009;-63
2023/02/10 00:11:56;;;;;;;0.62;0.62;;;;;;;-1.67;73.22;98669.16;29373;226;63003;-61
2023/02/10 00:12:27;;;;;;;0.70;0.70;;;;;;;-1.67;72.95;98674.50;29371;205;64013;-64
2023/02/10 00:12:58;;;;;;;0.70;0.70;;;;;;;-1.66;73.15;98665.50;29373;203;63004;-63
2023/02/10 00:13:30;;;;;;;0.68;0.68;;;;;;;-1.64;73.23;98668.00;29373;276;63009;-63
2023/02/10 00:14:01;;;;;;;0.60;0.60;;;;;;;-1.64;73.05;98663.50;29373;196;63010;-61
2023/02/10 00:14:33;;;;;;;0.60;0.60;;;;;;;-1.69;72.95;98661.34;29372;230;64008;-63
2023/02/10 00:15:05;;;;;;;3.62;3.53;;;;;;;-1.64;73.13;98658.19;29373;204;63005;-62
2023/02/10 00:15:37;;;;;;;0.60;0.60;;;;;;;-1.64;72.83;98663.50;29373;203;63009;-63
2023/02/10 00:16:14;;;;;;;0.60;0.60;;;;;;;-1.63;72.93;98665.16;29373;212;63005;-62
2023/02/10 00:16:45;;;;;;;0.70;0.70;;;;;;;-1.62;72.92;98661.50;29373;284;63009;-63
2023/02/10 00:17:17;;;;;;;0.60;0.60;;;;;;;-1.62;73.08;98661.50;29373;209;63005;-63
2023/02/10 00:17:48;;;;;;;0.60;0.60;;;;;;;-1.62;73.05;98655.34;29371;260;64013;-64
2023/02/10 00:18:20;;;;;;;0.60;0.60;;;;;;;-1.61;72.94;98657.84;29373;247;63005;-62
2023/02/10 00:18:51;;;;;;;0.60;0.60;;;;;;;-1.61;72.75;98657.84;29373;266;63009;-63
2023/02/10 00:19:25;;;;;;;0.60;0.60;;;;;;;-1.61;72.79;98663.16;29373;199;63004;-63
2023/02/10 00:19:56;;;;;;;0.60;0.60;;;;;;;-1.59;72.93;98655.84;29373;267;63009;-62
2023/02/10 00:20:27;;;;;;;0.60;0.60;;;;;;;-1.58;72.83;98656.66;29373;272;63004;-64
2023/02/10 00:21:09;;;;;;;0.60;0.60;;;;;;;-1.57;72.63;98664.47;29371;225;64013;-66
2023/02/10 00:21:41;;;;;;;0.60;0.60;;;;;;;-1.57;72.45;98659.16;29373;230;63004;-61
2023/02/10 00:22:12;;;;;;;0.60;0.60;;;;;;;-1.58;72.40;98657.50;29373;211;63008;-63
2023/02/10 00:22:44;;;;;;;0.60;0.60;;;;;;;-1.56;72.62;98654.66;29373;261;63005;-62
2023/02/10 00:23:15;;;;;;;0.60;0.60;;;;;;;-1.56;72.55;98662.66;29373;197;63005;-63
2023/02/10 00:23:47;;;;;;;0.60;0.60;;;;;;;-1.56;72.62;98658.16;29373;245;63005;-61
2023/02/10 00:24:19;;;;;;;0.60;0.60;;;;;;;-1.56;72.40;98655.50;29373;254;63009;-62
2023/02/10 00:24:51;;;;;;;0.62;0.62;;;;;;;-1.56;72.56;98663.47;29373;231;63005;-61
2023/02/10 00:25:23;;;;;;;0.60;0.60;;;;;;;-1.56;72.40;98660.81;29373;209;63009;-63
2023/02/10 00:25:54;;;;;;;0.65;0.65;;;;;;;-1.56;72.76;98659.97;29373;211;63005;-63
2023/02/10 00:26:26;;;;;;;0.60;0.60;;;;;;;-1.57;72.63;98659.16;29371;235;64004;-62
2023/02/10 00:26:58;;;;;;;0.60;0.60;;;;;;;-1.58;72.87;98657.50;29373;234;63004;-62
2023/02/10 00:27:29;;;;;;;0.60;0.60;;;;;;;-1.59;72.82;98655.84;29373;236;63009;-63
2023/02/10 00:28:00;;;;;;;0.60;0.60;;;;;;;-1.58;72.84;98657.50;29373;266;63004;-63
2023/02/10 00:28:33;;;;;;;0.60;0.60;;;;;;;-1.59;72.59;98650.50;29373;249;63009;-62
2023/02/10 00:29:05;;;;;;;0.70;0.70;;;;;;;-1.60;72.82;98656.84;29371;248;64009;-61
2023/02/10 00:29:39;;;;;;;0.70;0.70;;;;;;;-1.60;72.93;98648.84;29373;223;63008;-61
2023/02/10 00:30:12;;;;;;;0.70;0.70;;;;;;;-1.61;72.81;98652.50;29373;197;63005;-61
2023/02/10 00:30:43;;;;;;;0.70;0.70;;;;;;;-1.60;72.75;98653.34;29373;210;63009;-64
2023/02/10 00:31:18;;;;;;;0.70;0.70;;;;;;;-1.61;72.89;98649.84;29373;209;63017;-63
2023/02/10 00:31:49;;;;;;;0.70;0.70;;;;;;;-1.61;72.99;98652.50;29373;209;63009;-61
2023/02/10 00:32:21;;;;;;;0.70;0.70;;;;;;;-1.62;72.94;98650.84;29373;226;63005;-63
2023/02/10 00:32:52;;;;;;;0.70;0.70;;;;;;;-1.62;72.92;98647.34;29373;228;63009;-63
2023/02/10 00:33:24;;;;;;;0.60;0.60;;;;;;;-1.62;73.26;98650.84;29373;222;63005;-62
2023/02/10 00:33:56;;;;;;;0.60;0.60;;;;;;;-1.63;72.86;98654.50;29373;220;63005;-63
2023/02/10 00:34:27;;;;;;;0.60;0.60;;;;;;;-1.62;72.83;98652.69;29371;196;64009;-63
2023/02/10 00:34:59;;;;;;;0.70;0.70;;;;;;;-1.61;72.96;98659.66;29373;218;63009;-65
2023/02/10 00:35:30;;;;;;;0.62;0.62;;;;;;;-1.62;72.97;98648.19;29373;237;63004;-63
2023/02/10 00:36:06;;;;;;;0.60;0.60;;;;;;;-1.61;72.86;98649.84;29373;211;63017;-62
2023/02/10 00:36:38;;;;;;;0.70;0.70;;;;;;;-1.60;73.01;98654.16;29373;292;63004;-63
2023/02/10 00:37:09;;;;;;;0.70;0.70;;;;;;;-1.59;72.67;98661.16;29373;221;63008;-63
2023/02/10 00:37:40;;;;;;;0.70;0.70;;;;;;;-1.58;72.84;98660.16;29373;202;63004;-62
2023/02/10 00:38:11;;;;;;;0.60;0.60;;;;;;;-1.57;72.87;98658.31;29373;238;63009;-63
2023/02/10 00:38:43;;;;;;;0.60;0.60;;;;;;;-1.57;72.60;98659.16;29373;199;63005;-63
2023/02/10 00:39:15;;;;;;;0.70;0.70;;;;;;;-1.57;72.70;98656.50;29373;257;63009;-62
2023/02/10 00:39:47;;;;;;;0.60;0.60;;;;;;;-1.56;72.89;98660.81;29371;253;64009;-62
2023/02/10 00:40:19;;;;;;;0.60;0.60;;;;;;;-1.56;72.93;98666.13;29373;219;63009;-63
2023/02/10 00:40:51;;;;;;;2.85;2.60;;;;;;;-1.55;72.99;98662.47;29373;252;63005;-63
2023/02/10 00:41:23;;;;;;;0.60;0.60;;;;;;;-1.56;72.64;98671.47;29373;202;63009;-63
2023/02/10 00:41:55;;;;;;;0.60;0.60;;;;;;;-1.55;73.02;98667.78;29373;260;63004;-63
2023/02/10 00:42:26;;;;;;;0.60;0.60;;;;;;;-1.54;72.64;98665.97;29373;225;63009;-63
2023/02/10 00:42:58;;;;;;;0.70;0.70;;;;;;;-1.54;72.73;98664.12;29373;255;63004;-62
2023/02/10 00:43:29;;;;;;;0.60;0.60;;;;;;;-1.53;72.49;98660.47;29373;241;63009;-63
2023/02/10 00:44:02;;;;;;;0.60;0.60;;;;;;;-1.52;72.24;98666.63;29373;202;63004;-63
2023/02/10 00:44:33;;;;;;;0.60;0.60;;;;;;;-1.53;72.26;98671.12;29373;203;63008;-62
2023/02/10 00:45:05;;;;;;;0.60;0.60;;;;;;;-1.53;72.32;98660.47;29371;199;64008;-61
2023/02/10 00:45:36;;;;;;;0.70;0.70;;;;;;;-1.52;72.17;98671.94;29373;197;63009;-63
2023/02/10 00:46:08;;;;;;;0.65;0.65;;;;;;;-1.51;72.42;98668.28;29373;216;63005;-61
2023/02/10 00:46:39;;;;;;;0.60;0.60;;;;;;;-1.51;72.13;98669.13;29372;216;64009;-62
2023/02/10 00:47:10;;;;;;;0.60;0.60;;;;;;;-1.52;72.12;98672.78;29373;226;63005;-62
2023/02/10 00:47:41;;;;;;;0.70;0.70;;;;;;;-1.53;72.14;98668.47;29371;230;64013;-62
2023/02/10 00:48:13;;;;;;;0.60;0.60;;;;;;;-1.52;71.99;98663.97;29373;222;63005;-61
2023/02/10 00:48:45;;;;;;;0.60;0.60;;;;;;;-1.52;71.73;98674.63;29373;196;63009;-63
2023/02/10 00:49:16;;;;;;;0.60;0.60;;;;;;;-1.54;72.27;98677.44;29373;216;63004;-63
2023/02/10 00:49:48;;;;;;;0.70;0.70;;;;;;;-1.57;72.07;98672.47;29373;214;63009;-63
2023/02/10 00:50:19;;;;;;;0.60;0.60;;;;;;;-1.59;72.42;98671.81;29373;218;63004;-62
2023/02/10 00:50:51;;;;;;;0.60;0.60;;;;;;;-1.59;72.32;98676.28;29373;270;63009;-63
2023/02/10 00:51:23;;;;;;;0.70;0.70;;;;;;;-1.60;72.61;98678.12;29373;263;63004;-62
2023/02/10 00:51:54;;;;;;;0.70;0.70;;;;;;;-1.60;72.22;98675.47;29373;227;63008;-63
2023/02/10 00:52:26;;;;;;;0.70;0.70;;;;;;;-1.61;72.36;98684.44;29373;241;63005;-63
2023/02/10 00:52:57;;;;;;;0.60;0.60;;;;;;;-1.61;72.39;98681.78;29371;230;64014;-63
2023/02/10 00:53:28;;;;;;;0.68;0.68;;;;;;;-1.61;72.70;98678.28;29373;198;63005;-63
2023/02/10 00:53:59;;;;;;;0.60;0.60;;;;;;;-1.63;72.69;98683.78;29371;213;64013;-61
2023/02/10 00:54:31;;;;;;;0.70;0.70;;;;;;;-1.63;72.71;98677.63;29373;197;63005;-63
2023/02/10 00:55:03;;;;;;;0.60;0.60;;;;;;;-1.64;72.73;98676.81;29371;202;64013;-61
2023/02/10 00:55:34;;;;;;;0.60;0.60;;;;;;;-1.64;72.58;98676.81;29373;240;63005;-63
2023/02/10 00:56:07;;;;;;;0.60;0.60;;;;;;;-1.65;72.79;98685.78;29373;233;63017;-63
2023/02/10 00:56:41;;;;;;;0.60;0.60;;;;;;;-1.66;72.96;98673.50;29373;232;63004;-63
2023/02/10 00:57:12;;;;;;;0.60;0.60;;;;;;;-1.66;72.70;98681.47;29373;214;63009;-63
2023/02/10 00:57:43;;;;;;;0.70;0.70;;;;;;;-1.66;72.66;98675.31;29373;278;63004;-63
2023/02/10 00:58:14;;;;;;;0.62;0.62;;;;;;;-1.67;72.65;98679.81;29373;257;63009;-63
2023/02/10 00:58:46;;;;;;;0.68;0.68;;;;;;;-1.67;72.98;98671.81;29373;250;63004;-61
2023/02/10 00:59:19;;;;;;;0.68;0.68;;;;;;;-1.67;72.73;98679.81;29373;293;63008;-61
2023/02/10 00:59:51;;;;;;;0.70;0.70;;;;;;;-1.67;73.10;98685.13;29373;223;63005;-61
2023/02/10 01:00:22;;;;;;;0.70;0.70;;;;;;;-1.68;72.81;98678.16;29371;232;64014;-62
2023/02/10 01:00:54;;;;;;;0.60;0.60;;;;;;;-1.69;72.91;98677.31;29373;207;63005;-63
2023/02/10 01:01:25;;;;;;;0.60;0.60;;;;;;;-1.69;72.86;98674.66;29373;264;63009;-64
2023/02/10 01:01:56;;;;;;;0.60;0.60;;;;;;;-1.70;72.87;98680.97;29373;269;63005;-63
2023/02/10 01:02:28;;;;;;;0.60;0.60;;;;;;;-1.70;72.71;98682.81;29373;222;63009;-61
2023/02/10 01:02:59;;;;;;;0.65;0.65;;;;;;;-1.71;73.05;98683.81;29373;216;63005;-63
2023/02/10 01:03:30;;;;;;;0.60;0.60;;;;;;;-1.70;73.08;98680.16;29373;232;63009;-63
2023/02/10 01:04:05;;;;;;;2.42;2.33;;;;;;;-1.71;73.16;98683.81;29373;199;63004;-63
2023/02/10 01:04:37;;;;;;;0.60;0.60;;;;;;;-1.71;73.21;98689.13;29371;241;64013;-62
2023/02/10 01:05:08;;;;;;;0.60;0.60;;;;;;;-1.71;73.17;98687.31;29373;223;63004;-63
2023/02/10 01:05:40;;;;;;;0.60;0.60;;;;;;;-1.71;73.40;98686.47;29373;233;63009;-64
2023/02/10 01:06:14;;;;;;;0.60;0.60;;;;;;;-1.71;73.42;98686.47;29373;212;63003;-63
2023/02/10 01:06:46;;;;;;;0.70;0.70;;;;;;;-1.71;73.31;98683.81;29373;229;63008;-63
2023/02/10 01:07:20;;;;;;;0.60;0.60;;;;;;;-1.71;73.09;98681.16;29373;224;63005;-63
2023/02/10 01:07:52;;;;;;;0.70;0.70;;;;;;;-1.70;73.29;98685.47;29371;243;64014;-63
2023/02/10 01:08:23;;;;;;;0.60;0.60;;;;;;;-1.70;73.30;98680.16;29373;211;63005;-63
2023/02/10 01:08:55;;;;;;;0.70;0.70;;;;;;;-1.71;73.29;98679.31;29373;255;63009;-63
2023/02/10 01:09:27;;;;;;;0.60;0.60;;;;;;;-1.70;73.20;98685.47;29373;234;63005;-62
2023/02/10 01:09:58;;;;;;;0.70;0.70;;;;;;;-1.71;73.16;98681.16;29371;227;64013;-63
2023/02/10 01:10:34;;;;;;;0.60;0.60;;;;;;;-1.70;73.17;98690.78;29373;233;63005;-63
2023/02/10 01:11:08;;;;;;;0.60;0.60;;;;;;;-1.70;73.17;98685.47;29373;198;63009;-63
2023/02/10 01:11:40;;;;;;;0.60;0.60;;;;;;;-1.70;73.29;98685.47;29373;207;63004;-62
2023/02/10 01:12:13;;;;;;;0.60;0.60;;;;;;;-1.71;73.53;98689.13;29373;204;63009;-63
2023/02/10 01:12:45;;;;;;;0.68;0.68;;;;;;;-1.77;73.70;98692.50;29372;249;63004;-63
2023/02/10 01:13:16;;;;;;;0.60;0.60;;;;;;;-1.78;73.56;98697.00;29373;237;63009;-63
2023/02/10 01:13:47;;;;;;;0.85;0.85;;;;;;;-1.80;73.28;98685.69;29373;264;63004;-61
2023/02/10 01:14:18;;;;;;;0.60;0.60;;;;;;;-1.79;73.26;98686.53;29373;219;63004;-63
2023/02/10 01:14:49;;;;;;;0.60;0.60;;;;;;;-1.80;73.31;98690.19;29373;230;63005;-61
2023/02/10 01:15:21;;;;;;;0.70;0.70;;;;;;;-1.80;73.21;98684.84;29371;270;64014;-63
2023/02/10 01:15:52;;;;;;;0.60;0.60;;;;;;;-1.80;73.18;98693.66;29373;226;63005;-63
2023/02/10 01:16:24;;;;;;;0.60;0.60;;;;;;;-1.80;73.62;98685.69;29371;252;64013;-63
2023/02/10 01:16:55;;;;;;;0.60;0.60;;;;;;;-1.79;73.65;98691.84;29373;212;63005;-63
2023/02/10 01:17:26;;;;;;;0.60;0.60;;;;;;;-1.80;73.23;98691.00;29373;224;63009;-63
2023/02/10 01:17:57;;;;;;;0.60;0.60;;;;;;;-1.80;73.10;98688.34;29373;218;63005;-62
2023/02/10 01:18:28;;;;;;;0.70;0.70;;;;;;;-1.80;73.12;98684.84;29373;242;63009;-63
2023/02/10 01:19:00;;;;;;;0.70;0.70;;;;;;;-1.79;73.57;98689.19;29373;260;63004;-63
2023/02/10 01:19:31;;;;;;;0.60;0.60;;;;;;;-1.79;73.34;98686.53;29373;202;63009;-63
2023/02/10 01:20:05;;;;;;;0.60;0.60;;;;;;;-1.77;73.35;98684.53;29373;196;63004;-63
2023/02/10 01:20:39;;;;;;;0.60;0.60;;;;;;;-1.77;73.29;98685.34;29373;198;63017;-63
2023/02/10 01:21:14;;;;;;;0.68;0.68;;;;;;;-1.77;73.37;98684.53;29373;226;63004;-63
2023/02/10 01:21:45;;;;;;;0.60;0.60;;;;;;;-1.76;72.93;98686.19;29371;198;64013;-63
2023/02/10 01:22:16;;;;;;;0.60;0.60;;;;;;;-1.77;73.03;98682.69;29373;218;63005;-62
2023/02/10 01:22:47;;;;;;;0.62;0.62;;;;;;;-1.76;72.88;98683.53;29373;198;63019;-62
2023/02/10 01:23:18;;;;;;;0.70;0.70;;;;;;;-1.77;73.06;98685.34;29373;229;63005;-63
2023/02/10 01:23:50;;;;;;;0.60;0.60;;;;;;;-1.77;73.16;98684.53;29373;204;63009;-63
2023/02/10 01:24:21;;;;;;;0.60;0.60;;;;;;;-1.76;73.06;98691.50;29373;205;63005;-63
2023/02/10 01:24:52;;;;;;;0.65;0.65;;;;;;;-1.78;73.18;98685.53;29373;257;63009;-63
2023/02/10 01:25:23;;;;;;;0.70;0.70;;;;;;;-1.77;73.21;98684.53;29373;218;63005;-61
2023/02/10 01:25:59;;;;;;;0.60;0.60;;;;;;;-1.78;73.22;98682.84;29373;220;63015;-63
2023/02/10 01:26:31;;;;;;;0.60;0.60;;;;;;;-1.77;73.20;98679.19;29373;277;63009;-62
2023/02/10 01:27:02;;;;;;;0.60;0.60;;;;;;;-1.78;73.24;98683.69;29371;227;64013;-63
2023/02/10 01:27:33;;;;;;;0.70;0.70;;;;;;;-1.78;73.30;98680.19;29371;212;64009;-64
2023/02/10 01:28:07;;;;;;;0.70;0.70;;;;;;;-1.77;73.28;98682.69;29373;256;63009;-63
2023/02/10 01:28:42;;;;;;;0.70;0.70;;;;;;;-1.76;73.27;98681.69;29373;196;63004;-63
2023/02/10 01:29:13;;;;;;;0.60;0.60;;;;;;;-1.75;73.03;98682.53;29373;223;63015;-62
2023/02/10 01:29:44;;;;;;;0.60;0.60;;;;;;;-1.76;73.34;98680.84;29373;250;63005;-63
2023/02/10 01:30:16;;;;;;;0.70;0.70;;;;;;;-1.77;73.17;98684.53;29373;214;63009;-63
2023/02/10 01:30:47;;;;;;;0.70;0.70;;;;;;;-1.78;73.52;98688.19;29373;219;63005;-63
2023/02/10 01:31:20;;;;;;;0.70;0.70;;;;;;;-1.81;73.77;98688.53;29373;198;63009;-64
2023/02/10 01:31:54;;;;;;;0.70;0.70;;;;;;;-1.84;73.44;98688.84;29373;276;63005;-64
2023/02/10 01:32:25;;;;;;;1.08;1.08;;;;;;;-1.85;73.19;98693.34;29371;239;64013;-62
2023/02/10 01:32:56;;;;;;;0.70;0.70;;;;;;;-1.86;73.41;98690.84;29373;284;63005;-63
2023/02/10 01:33:28;;;;;;;0.75;0.75;;;;;;;-1.88;73.38;98687.53;29373;199;63009;-64
2023/02/10 01:33:59;;;;;;;0.70;0.70;;;;;;;-1.89;72.95;98688.53;29371;215;64009;-63
2023/02/10 01:34:30;;;;;;;1.05;1.05;;;;;;;-1.89;73.05;98683.22;29373;245;63009;-62
2023/02/10 01:35:02;;;;;;;2.50;1.70;;;;;;;-1.91;73.14;98687.88;29374;329;63004;-63
2023/02/10 01:35:36;;;;;;;0.70;0.70;;;;;;;-1.93;73.10;98684.56;29373;223;63009;-62
2023/02/10 01:36:11;;;;;;;0.65;0.65;;;;;;;-1.94;73.03;98682.87;29373;202;63004;-62
2023/02/10 01:36:42;;;;;;;0.70;0.70;;;;;;;-1.94;72.82;98682.87;29373;293;63023;-63
2023/02/10 01:37:13;;;;;;;0.70;0.70;;;;;;;-1.97;73.00;98683.22;29373;208;63004;-61
2023/02/10 01:37:44;;;;;;;0.70;0.70;;;;;;;-1.99;72.82;98685.22;29373;209;63009;-63
2023/02/10 01:38:16;;;;;;;1.98;1.95;;;;;;;-1.99;72.87;98685.22;29371;257;64009;-62
2023/02/10 01:38:48;;;;;;;0.70;0.70;;;;;;;-2.00;72.78;98683.56;29373;209;63009;-63
2023/02/10 01:39:19;;;;;;;0.70;0.70;;;;;;;-2.04;73.02;98683.06;29373;202;63005;-62
2023/02/10 01:39:50;;;;;;;0.70;0.70;;;;;;;-2.06;73.01;98685.06;29371;212;64013;-63
2023/02/10 01:40:24;;;;;;;0.70;0.70;;;;;;;-2.07;73.26;98678.91;29373;204;63005;-62
2023/02/10 01:40:55;;;;;;;0.60;0.60;;;;;;;-2.09;73.04;98686.25;29373;204;63013;-62
2023/02/10 01:41:27;;;;;;;0.60;0.60;;;;;;;-2.10;73.41;98689.09;29373;215;63005;-62
2023/02/10 01:41:58;;;;;;;0.73;0.73;;;;;;;-2.11;73.48;98682.94;29373;206;63009;-63
2023/02/10 01:42:30;;;;;;;1.45;1.42;;;;;;;-2.12;73.43;98683.94;29373;243;63004;-62
2023/02/10 01:43:01;;;;;;;0.70;0.70;;;;;;;-2.12;73.20;98686.59;29373;216;63009;-64
2023/02/10 01:43:52;;;;;;;0.65;0.65;;;;;;;-2.12;73.48;98688.41;29373;203;63004;-64
2023/02/10 01:45:03;;;;;;;0.70;0.70;;;;;;;-2.15;73.41;98689.59;29393;237;64013;-61
2023/02/10 01:45:38;;;;;;;0.68;0.68;;;;;;;-2.18;73.23;98687.25;29395;207;63005;-61
2023/02/10 01:46:09;;;;;;;0.68;0.68;;;;;;;-2.22;73.54;98691.25;29373;212;63009;-62
2023/02/10 01:46:40;;;;;;;0.60;0.60;;;;;;;-2.25;73.53;98691.59;29373;204;63005;-63
2023/02/10 01:47:13;;;;;;;0.60;0.60;;;;;;;-2.28;73.63;98686.59;29373;198;63009;-62
2023/02/10 01:47:47;;;;;;;0.70;0.70;;;;;;;-2.31;73.72;98686.94;29373;250;63005;-63
2023/02/10 01:48:19;;;;;;;0.70;0.70;;;;;;;-2.34;73.52;98683.78;29373;204;63009;-62
2023/02/10 01:48:52;;;;;;;0.62;0.62;;;;;;;-2.36;73.78;98684.78;29373;312;63004;-63
2023/02/10 01:49:33;;;;;;;0.82;0.82;;;;;;;-2.38;73.87;98680.63;29372;295;64029;-63
2023/02/10 01:50:06;;;;;;;0.70;0.70;;;;;;;-2.41;74.07;98680.94;29395;279;63004;-63
2023/02/10 01:50:44;;;;;;;0.70;0.70;;;;;;;-2.45;74.26;98680.47;29395;261;63018;-62
2023/02/10 01:51:19;;;;;;;0.90;0.90;;;;;;;-2.48;74.37;98685.28;29373;295;63004;-63
2023/02/10 01:52:04;;;;;;;1.17;1.17;;;;;;;-2.46;74.42;98683.31;29373;253;63008;-63
2023/02/10 01:52:35;;;;;;;0.70;0.70;;;;;;;-2.46;74.16;98680.66;29373;215;63005;-63
2023/02/10 01:53:07;;;;;;;0.60;0.60;;;;;;;-2.47;74.33;98676.31;29373;339;63009;-63
2023/02/10 01:53:40;;;;;;;0.70;0.70;;;;;;;-2.49;74.79;98683.63;29373;266;63008;-62
2023/02/10 01:54:17;;;;;;;0.70;0.70;;;;;;;-2.47;74.54;98681.63;29373;325;63026;-64
2023/02/10 01:55:04;;;;;;;0.75;0.75;;;;;;;-2.47;74.63;98689.63;29371;222;64009;-60
2023/02/10 01:55:41;;;;;;;0.90;0.90;;;;;;;-2.45;74.49;98690.28;29373;354;63021;-63
2023/02/10 01:56:15;;;;;;;0.70;0.70;;;;;;;-2.37;73.99;98684.94;29371;270;64009;-62
2023/02/10 01:56:47;;;;;;;0.70;0.70;;;;;;;-2.33;73.69;98688.09;29373;216;63009;-63
2023/02/10 01:57:20;;;;;;;1.08;1.08;;;;;;;-2.31;73.72;98686.09;29373;216;63004;-64
2023/02/10 01:57:53;;;;;;;0.60;0.60;;;;;;;-2.36;73.81;98684.78;29373;326;63009;-63
2023/02/10 01:58:28;;;;;;;0.62;0.62;;;;;;;-2.37;73.59;98687.59;29373;314;63017;-63
2023/02/10 01:59:00;;;;;;;0.60;0.60;;;;;;;-2.42;73.98;98684.59;29373;256;63008;-63
2023/02/10 01:59:34;;;;;;;0.60;0.60;;;;;;;-2.46;74.00;98684.13;29373;249;63005;-63
2023/02/10 02:00:06;;;;;;;1.35;1.35;;;;;;;-2.43;73.88;98688.28;29373;229;63024;-63
2023/02/10 02:00:38;;;;;;;2.40;2.35;;;;;;;-2.45;73.91;98687.63;29371;365;64009;-63
2023/02/10 02:01:09;;;;;;;0.70;0.70;;;;;;;-2.49;74.14;98684.47;29373;258;63009;-59
2023/02/10 02:01:40;;;;;;;0.70;0.70;;;;;;;-2.50;74.03;98681.97;29373;199;63005;-59
2023/02/10 02:02:14;;;;;;;0.70;0.70;;;;;;;-2.52;74.28;98690.09;29373;197;63009;-63
2023/02/10 02:02:46;;;;;;;0.70;0.70;;;;;;;-2.54;74.18;98688.63;29373;245;63016;-62
2023/02/10 02:03:18;;;;;;;0.70;0.70;;;;;;;-2.57;74.27;98687.12;29371;197;64013;-63
2023/02/10 02:03:51;;;;;;;0.70;0.70;;;;;;;-2.58;74.60;98695.25;29373;255;63004;-60
2023/02/10 02:04:23;;;;;;;1.17;1.17;;;;;;;-2.60;74.59;98682.13;29373;206;63020;-63
2023/02/10 02:05:06;;;;;;;0.60;0.60;;;;;;;-2.60;74.68;98698.06;29373;211;63014;-60
2023/02/10 02:05:40;;;;;;;0.60;0.60;;;;;;;-2.62;74.95;98693.91;29373;337;63009;-63
2023/02/10 02:06:12;;;;;;;0.70;0.70;;;;;;;-2.64;75.10;98696.75;29373;230;63015;-59
2023/02/10 02:06:43;;;;;;;0.80;0.80;;;;;;;-2.63;75.16;98697.56;29373;218;63015;-62
2023/02/10 02:07:15;;;;;;;0.93;0.93;;;;;;;-2.64;74.95;98688.75;29373;309;63005;-62
2023/02/10 02:07:48;;;;;;;0.60;0.60;;;;;;;-2.63;75.15;98702.88;29373;209;63009;-62
2023/02/10 02:08:24;;;;;;;0.70;0.70;;;;;;;-2.64;74.99;98695.91;29372;197;64009;-63
2023/02/10 02:08:55;;;;;;;0.70;0.70;;;;;;;-2.64;75.17;98693.25;29373;202;63009;-62
2023/02/10 02:09:27;;;;;;;0.65;0.65;;;;;;;-2.59;74.76;98698.91;29371;205;64009;-63
2023/02/10 02:09:59;;;;;;;0.70;0.70;;;;;;;-2.59;74.84;98694.41;29373;224;63015;-61
2023/02/10 02:10:46;;;;;;;0.68;0.68;;;;;;;-2.57;74.71;98692.44;29373;249;63005;-63
2023/02/10 02:12:01;;;;;;;0.68;0.68;;;;;;;-2.57;74.62;98696.91;29373;203;63009;-63
2023/02/10 02:13:02;;;;;;;1.00;1.00;;;;;;;-2.56;74.36;98693.25;29372;256;64009;-63
2023/02/10 02:14:07;;;;;;;0.70;0.70;;;;;;;-2.55;74.64;98702.91;29373;280;63008;-62
2023/02/10 02:15:20;;;;;;;0.70;0.70;;;;;;;-2.57;74.52;98697.75;29373;330;63005;-62
2023/02/10 02:16:01;;;;;;;0.70;0.70;;;;;;;-2.58;74.75;98700.56;29395;329;63009;-63
2023/02/10 02:17:04;;;;;;;0.70;0.70;;;;;;;-2.59;74.81;98698.91;29394;220;64022;-62
2023/02/10 02:18:25;;;;;;;0.70;0.70;;;;;;;-2.55;74.85;98703.72;29373;214;63009;-62
2023/02/10 02:19:47;;;;;;;0.70;0.70;;;;;;;-2.51;74.81;98706.88;29373;202;63004;-63
2023/02/10 02:21:10;;;;;;;0.80;0.80;;;;;;;-2.54;74.97;98707.22;29395;196;63009;-63
2023/02/10 02:22:23;;;;;;;0.70;0.70;;;;;;;-2.55;74.76;98708.22;29416;307;64001;-58
2023/02/10 02:23:12;;;;;;;0.70;0.70;;;;;;;-2.51;74.66;98712.19;29417;228;63009;-63
2023/02/10 02:24:38;;;;;;;0.70;0.70;;;;;;;-2.49;74.71;98715.53;29395;228;63005;-63
2023/02/10 02:25:41;;;;;;;0.70;0.70;;;;;;;-2.51;74.57;98709.53;29373;221;63009;-62
2023/02/10 02:27:03;;;;;;;0.70;0.70;;;;;;;-2.52;75.00;98713.19;29373;229;63004;-64
2023/02/10 02:28:16;;;;;;;0.70;0.70;;;;;;;-2.56;75.08;98712.69;29371;282;64009;-63
2023/02/10 02:29:48;;;;;;;0.70;0.70;;;;;;;-2.50;74.80;98713.87;29373;226;63016;-63
2023/02/10 02:31:02;;;;;;;0.70;0.70;;;;;;;-2.47;74.61;98709.06;29371;226;64009;-63
2023/02/10 02:32:18;;;;;;;0.70;0.70;;;;;;;-2.40;74.22;98710.03;29373;228;63009;-59
2023/02/10 02:33:01;;;;;;;0.70;0.70;;;;;;;-2.36;73.92;98705.22;29371;222;64009;-62
2023/02/10 02:34:01;;;;;;;0.70;0.70;;;;;;;-2.36;73.69;98705.22;29373;245;63025;-63
2023/02/10 02:34:56;;;;;;;0.70;0.70;;;;;;;-2.36;73.75;98708.69;29373;214;63004;-62
2023/02/10 02:35:36;;;;;;;0.70;0.70;;;;;;;-2.38;73.88;98705.37;29373;255;63009;-63
2023/02/10 02:36:18;;;;;;;0.80;0.80;;;;;;;-2.36;73.97;98711.34;29373;335;63004;-62
2023/02/10 02:36:57;;;;;;;0.70;0.70;;;;;;;-2.35;73.58;98712.19;29373;341;63009;-62
2023/02/10 02:37:32;;;;;;;0.70;0.70;;;;;;;-2.33;73.67;98710.19;29373;269;63005;-63
2023/02/10 02:38:04;;;;;;;0.93;0.93;;;;;;;-2.31;74.01;98713.53;29371;310;64014;-63
2023/02/10 02:38:40;;;;;;;0.70;0.70;;;;;;;-2.33;73.81;98709.38;29373;257;63000;-61
2023/02/10 02:39:11;;;;;;;0.60;0.60;;;;;;;-2.33;74.20;98712.03;29373;222;63024;-63
2023/02/10 02:39:44;;;;;;;0.70;0.70;;;;;;;-2.37;74.14;98715.00;29373;203;63005;-62
2023/02/10 02:40:17;;;;;;;0.68;0.68;;;;;;;-2.39;74.05;98718.81;29373;197;63018;-63
2023/02/10 02:40:49;;;;;;;0.70;0.70;;;;;;;-2.40;74.29;98711.84;29373;202;63005;-64
2023/02/10 02:41:25;;;;;;;0.70;0.70;;;;;;;-2.42;74.19;98712.00;29373;199;63020;-63
2023/02/10 02:42:26;;;;;;;1.05;1.05;;;;;;;-2.43;74.48;98709.56;29373;229;63004;-59
2023/02/10 02:42:57;;;;;;;0.73;0.73;;;;;;;-2.43;74.47;98720.19;29373;202;63009;-63
2023/02/10 02:43:28;;;;;;;0.80;0.80;;;;;;;-2.44;74.36;98713.22;29371;338;64025;-62
2023/02/10 02:44:02;;;;;;;0.75;0.75;;;;;;;-2.44;74.38;98707.88;29373;249;63008;-62
2023/02/10 02:44:33;;;;;;;0.70;0.70;;;;;;;-2.43;74.39;98714.88;29373;282;63011;-63
2023/02/10 02:45:28;;;;;;;0.70;0.70;;;;;;;-2.45;74.29;98712.37;29373;207;63009;-63
2023/02/10 02:46:25;;;;;;;0.80;0.80;;;;;;;-2.44;74.47;98713.22;29373;266;63005;-63
2023/02/10 02:47:07;;;;;;;0.70;0.70;;;;;;;-2.42;74.37;98716.50;29373;208;63009;-63
2023/02/10 02:48:18;;;;;;;0.70;0.70;;;;;;;-2.42;74.64;98716.50;29373;217;63005;-63
2023/02/10 02:49:16;;;;;;;0.70;0.70;;;;;;;-2.44;75.00;98723.84;29371;214;64009;-63
2023/02/10 02:50:36;;;;;;;0.70;0.70;;;;;;;-2.46;74.98;98720.50;29373;238;63004;-63
2023/02/10 02:51:38;;;;;;;0.70;0.70;;;;;;;-2.46;74.79;98721.34;29373;324;63004;-63
2023/02/10 02:52:21;;;;;;;0.70;0.70;;;;;;;-2.45;74.54;98724.84;29395;222;63009;-63
2023/02/10 02:53:21;;;;;;;0.70;0.70;;;;;;;-2.48;74.61;98727.81;29395;216;63005;-63